sensor_id;sensor_type;location;lat;lon;timestamp;P1;durP1;ratioP1;P2;durP2;ratioP2
81967;SDS011;71468;56.880;60.616;2023-07-20T00:01:29;14.90;;;11.50;;
81967;SDS011;71468;56.880;60.616;2023-07-20T00:03:55;14.43;;;11.18;;
81967;SDS011;71468;56.880;60.616;2023-07-20T00:06:23;16.17;;;11.57;;
81967;SDS011;71468;56.880;60.616;2023-07-20T00:08:51;13.25;;;11.77;;
81967;SDS011;71468;56.880;60.616;2023-07-20T00:11:18;15.38;;;12.23;;
81967;SDS011;71468;56.880;60.616;2023-07-20T00:13:44;14.77;;;12.02;;
81967;SDS011;71468;56.880;60.616;2023-07-20T00:16:11;16.80;;;12.15;;
81967;SDS011;71468;56.880;60.616;2023-07-20T00:18:37;13.52;;;11.55;;
81967;SDS011;71468;56.880;60.616;2023-07-20T00:21:04;14.52;;;12.35;;
81967;SDS011;71468;56.880;60.616;2023-07-20T00:23:30;16.13;;;12.57;;
81967;SDS011;71468;56.880;60.616;2023-07-20T00:25:57;14.25;;;11.98;;
81967;SDS011;71468;56.880;60.616;2023-07-20T00:28:23;14.52;;;11.50;;
81967;SDS011;71468;56.880;60.616;2023-07-20T00:30:50;15.02;;;12.95;;
81967;SDS011;71468;56.880;60.616;2023-07-20T00:33:17;17.23;;;11.65;;
81967;SDS011;71468;56.880;60.616;2023-07-20T00:35:44;16.55;;;11.35;;
81967;SDS011;71468;56.880;60.616;2023-07-20T00:38:11;17.35;;;11.65;;
81967;SDS011;71468;56.880;60.616;2023-07-20T00:40:37;14.55;;;13.05;;
81967;SDS011;71468;56.880;60.616;2023-07-20T00:43:04;17.73;;;13.07;;
81967;SDS011;71468;56.880;60.616;2023-07-20T00:45:31;18.10;;;13.50;;
81967;SDS011;71468;56.880;60.616;2023-07-20T00:47:59;16.58;;;13.27;;
81967;SDS011;71468;56.880;60.616;2023-07-20T00:50:28;23.45;;;13.95;;
81967;SDS011;71468;56.880;60.616;2023-07-20T00:52:55;19.52;;;13.95;;
81967;SDS011;71468;56.880;60.616;2023-07-20T00:55:22;16.90;;;13.77;;
81967;SDS011;71468;56.880;60.616;2023-07-20T00:57:49;17.38;;;13.65;;
81967;SDS011;71468;56.880;60.616;2023-07-20T01:00:17;21.30;;;15.32;;
81967;SDS011;71468;56.880;60.616;2023-07-20T01:02:45;18.75;;;14.27;;
81967;SDS011;71468;56.880;60.616;2023-07-20T01:05:12;19.60;;;14.40;;
81967;SDS011;71468;56.880;60.616;2023-07-20T01:07:41;17.23;;;14.13;;
81967;SDS011;71468;56.880;60.616;2023-07-20T01:10:12;18.63;;;14.02;;
81967;SDS011;71468;56.880;60.616;2023-07-20T01:12:47;16.02;;;13.25;;
81967;SDS011;71468;56.880;60.616;2023-07-20T01:15:14;18.50;;;13.68;;
81967;SDS011;71468;56.880;60.616;2023-07-20T01:17:41;17.67;;;13.82;;
81967;SDS011;71468;56.880;60.616;2023-07-20T01:20:08;15.85;;;13.30;;
81967;SDS011;71468;56.880;60.616;2023-07-20T01:22:41;15.00;;;13.18;;
81967;SDS011;71468;56.880;60.616;2023-07-20T01:33:35;16.27;;;12.00;;
81967;SDS011;71468;56.880;60.616;2023-07-20T01:36:02;17.95;;;11.93;;
81967;SDS011;71468;56.880;60.616;2023-07-20T01:38:29;15.25;;;12.00;;
81967;SDS011;71468;56.880;60.616;2023-07-20T01:40:56;19.50;;;12.38;;
81967;SDS011;71468;56.880;60.616;2023-07-20T01:43:24;13.05;;;11.35;;
81967;SDS011;71468;56.880;60.616;2023-07-20T01:45:50;13.48;;;12.05;;
81967;SDS011;71468;56.880;60.616;2023-07-20T01:48:17;14.45;;;12.27;;
81967;SDS011;71468;56.880;60.616;2023-07-20T01:50:43;17.90;;;11.15;;
81967;SDS011;71468;56.880;60.616;2023-07-20T01:53:10;12.65;;;11.35;;
81967;SDS011;71468;56.880;60.616;2023-07-20T01:55:37;15.75;;;11.73;;
81967;SDS011;71468;56.880;60.616;2023-07-20T01:58:04;14.43;;;11.43;;
81967;SDS011;71468;56.880;60.616;2023-07-20T02:00:32;13.57;;;11.27;;
81967;SDS011;71468;56.880;60.616;2023-07-20T02:02:58;13.15;;;11.38;;
81967;SDS011;71468;56.880;60.616;2023-07-20T02:05:25;13.55;;;11.68;;
81967;SDS011;71468;56.880;60.616;2023-07-20T02:07:52;13.02;;;10.18;;
81967;SDS011;71468;56.880;60.616;2023-07-20T02:10:19;14.18;;;11.48;;
81967;SDS011;71468;56.880;60.616;2023-07-20T02:12:46;12.90;;;10.85;;
81967;SDS011;71468;56.880;60.616;2023-07-20T02:15:14;14.05;;;10.50;;
81967;SDS011;71468;56.880;60.616;2023-07-20T02:17:42;13.43;;;11.50;;
81967;SDS011;71468;56.880;60.616;2023-07-20T02:20:09;14.30;;;10.55;;
81967;SDS011;71468;56.880;60.616;2023-07-20T02:22:36;12.38;;;10.30;;
81967;SDS011;71468;56.880;60.616;2023-07-20T02:25:04;12.15;;;10.15;;
81967;SDS011;71468;56.880;60.616;2023-07-20T02:27:31;15.23;;;10.57;;
81967;SDS011;71468;56.880;60.616;2023-07-20T02:29:58;12.25;;;10.35;;
81967;SDS011;71468;56.880;60.616;2023-07-20T02:32:25;14.00;;;9.98;;
81967;SDS011;71468;56.880;60.616;2023-07-20T02:34:51;15.00;;;10.98;;
81967;SDS011;71468;56.880;60.616;2023-07-20T02:37:18;14.93;;;10.20;;
81967;SDS011;71468;56.880;60.616;2023-07-20T02:39:45;9.55;;;8.30;;
81967;SDS011;71468;56.880;60.616;2023-07-20T02:42:11;12.23;;;9.27;;
81967;SDS011;71468;56.880;60.616;2023-07-20T02:44:39;11.82;;;10.55;;
81967;SDS011;71468;56.880;60.616;2023-07-20T02:47:05;11.32;;;10.23;;
81967;SDS011;71468;56.880;60.616;2023-07-20T02:49:32;11.02;;;8.77;;
81967;SDS011;71468;56.880;60.616;2023-07-20T02:51:59;14.65;;;10.02;;
81967;SDS011;71468;56.880;60.616;2023-07-20T02:54:25;10.27;;;9.20;;
81967;SDS011;71468;56.880;60.616;2023-07-20T02:56:52;12.40;;;10.27;;
81967;SDS011;71468;56.880;60.616;2023-07-20T02:59:18;11.85;;;8.77;;
81967;SDS011;71468;56.880;60.616;2023-07-20T03:01:45;9.10;;;8.20;;
81967;SDS011;71468;56.880;60.616;2023-07-20T03:04:11;8.68;;;7.75;;
81967;SDS011;71468;56.880;60.616;2023-07-20T03:06:38;10.13;;;7.93;;
81967;SDS011;71468;56.880;60.616;2023-07-20T03:09:05;11.55;;;8.48;;
81967;SDS011;71468;56.880;60.616;2023-07-20T03:11:32;10.90;;;7.93;;
81967;SDS011;71468;56.880;60.616;2023-07-20T03:14:00;9.02;;;7.50;;
81967;SDS011;71468;56.880;60.616;2023-07-20T03:16:27;11.90;;;7.60;;
81967;SDS011;71468;56.880;60.616;2023-07-20T03:18:53;10.60;;;8.27;;
81967;SDS011;71468;56.880;60.616;2023-07-20T03:21:20;13.27;;;8.38;;
81967;SDS011;71468;56.880;60.616;2023-07-20T03:23:47;8.65;;;7.75;;
81967;SDS011;71468;56.880;60.616;2023-07-20T03:26:13;10.38;;;8.43;;
81967;SDS011;71468;56.880;60.616;2023-07-20T03:28:40;10.70;;;7.90;;
81967;SDS011;71468;56.880;60.616;2023-07-20T03:31:09;10.30;;;8.10;;
81967;SDS011;71468;56.880;60.616;2023-07-20T03:33:39;10.50;;;7.78;;
81967;SDS011;71468;56.880;60.616;2023-07-20T03:36:05;9.75;;;7.07;;
81967;SDS011;71468;56.880;60.616;2023-07-20T03:38:32;8.02;;;7.22;;
81967;SDS011;71468;56.880;60.616;2023-07-20T03:40:59;9.25;;;7.50;;
81967;SDS011;71468;56.880;60.616;2023-07-20T03:43:27;10.45;;;7.07;;
81967;SDS011;71468;56.880;60.616;2023-07-20T03:45:54;11.75;;;7.72;;
81967;SDS011;71468;56.880;60.616;2023-07-20T03:48:21;10.68;;;7.82;;
81967;SDS011;71468;56.880;60.616;2023-07-20T03:50:49;10.52;;;7.78;;
81967;SDS011;71468;56.880;60.616;2023-07-20T03:53:18;10.00;;;7.93;;
81967;SDS011;71468;56.880;60.616;2023-07-20T03:55:48;9.55;;;8.00;;
81967;SDS011;71468;56.880;60.616;2023-07-20T03:58:16;7.85;;;7.10;;
81967;SDS011;71468;56.880;60.616;2023-07-20T04:00:46;11.73;;;8.10;;
81967;SDS011;71468;56.880;60.616;2023-07-20T04:03:17;12.77;;;8.52;;
81967;SDS011;71468;56.880;60.616;2023-07-20T04:08:17;10.23;;;7.57;;
81967;SDS011;71468;56.880;60.616;2023-07-20T04:10:44;9.38;;;7.72;;
81967;SDS011;71468;56.880;60.616;2023-07-20T04:13:11;9.35;;;7.95;;
81967;SDS011;71468;56.880;60.616;2023-07-20T04:15:38;10.57;;;7.63;;
81967;SDS011;71468;56.880;60.616;2023-07-20T04:18:04;9.45;;;7.78;;
81967;SDS011;71468;56.880;60.616;2023-07-20T04:20:31;14.88;;;7.72;;
81967;SDS011;71468;56.880;60.616;2023-07-20T04:22:58;12.20;;;7.75;;
81967;SDS011;71468;56.880;60.616;2023-07-20T04:25:25;9.50;;;7.30;;
81967;SDS011;71468;56.880;60.616;2023-07-20T04:27:51;9.18;;;7.72;;
81967;SDS011;71468;56.880;60.616;2023-07-20T04:30:19;11.05;;;8.25;;
81967;SDS011;71468;56.880;60.616;2023-07-20T04:32:47;9.15;;;7.10;;
81967;SDS011;71468;56.880;60.616;2023-07-20T04:38:12;7.57;;;6.85;;
81967;SDS011;71468;56.880;60.616;2023-07-20T04:40:42;9.10;;;7.38;;
81967;SDS011;71468;56.880;60.616;2023-07-20T04:43:09;11.35;;;7.00;;
81967;SDS011;71468;56.880;60.616;2023-07-20T04:45:37;13.70;;;6.53;;
81967;SDS011;71468;56.880;60.616;2023-07-20T04:48:05;10.60;;;7.90;;
81967;SDS011;71468;56.880;60.616;2023-07-20T04:50:35;9.20;;;6.45;;
81967;SDS011;71468;56.880;60.616;2023-07-20T04:53:01;8.35;;;6.70;;
81967;SDS011;71468;56.880;60.616;2023-07-20T04:55:28;9.90;;;6.93;;
81967;SDS011;71468;56.880;60.616;2023-07-20T04:57:55;10.32;;;6.90;;
81967;SDS011;71468;56.880;60.616;2023-07-20T05:00:23;9.65;;;6.60;;
81967;SDS011;71468;56.880;60.616;2023-07-20T05:02:50;7.75;;;6.63;;
81967;SDS011;71468;56.880;60.616;2023-07-20T05:05:16;7.80;;;7.00;;
81967;SDS011;71468;56.880;60.616;2023-07-20T05:07:43;13.77;;;7.18;;
81967;SDS011;71468;56.880;60.616;2023-07-20T05:10:10;8.15;;;7.07;;
81967;SDS011;71468;56.880;60.616;2023-07-20T05:12:37;11.82;;;6.97;;
81967;SDS011;71468;56.880;60.616;2023-07-20T05:15:04;7.57;;;6.47;;
81967;SDS011;71468;56.880;60.616;2023-07-20T05:17:30;10.18;;;6.35;;
81967;SDS011;71468;56.880;60.616;2023-07-20T05:19:57;10.32;;;6.82;;
81967;SDS011;71468;56.880;60.616;2023-07-20T05:22:24;10.10;;;7.15;;
81967;SDS011;71468;56.880;60.616;2023-07-20T05:24:51;9.23;;;6.80;;
81967;SDS011;71468;56.880;60.616;2023-07-20T05:27:17;11.07;;;7.05;;
81967;SDS011;71468;56.880;60.616;2023-07-20T05:29:47;7.35;;;6.65;;
81967;SDS011;71468;56.880;60.616;2023-07-20T05:32:14;6.90;;;5.82;;
81967;SDS011;71468;56.880;60.616;2023-07-20T05:34:41;6.97;;;6.10;;
81967;SDS011;71468;56.880;60.616;2023-07-20T05:37:07;7.90;;;6.35;;
81967;SDS011;71468;56.880;60.616;2023-07-20T05:39:34;12.15;;;7.00;;
81967;SDS011;71468;56.880;60.616;2023-07-20T05:42:00;6.65;;;5.97;;
81967;SDS011;71468;56.880;60.616;2023-07-20T05:44:27;7.80;;;6.25;;
81967;SDS011;71468;56.880;60.616;2023-07-20T05:46:54;10.82;;;6.10;;
81967;SDS011;71468;56.880;60.616;2023-07-20T05:49:21;6.55;;;5.93;;
81967;SDS011;71468;56.880;60.616;2023-07-20T05:51:47;6.63;;;6.00;;
81967;SDS011;71468;56.880;60.616;2023-07-20T05:54:14;5.90;;;5.40;;
81967;SDS011;71468;56.880;60.616;2023-07-20T05:56:41;6.40;;;5.80;;
81967;SDS011;71468;56.880;60.616;2023-07-20T05:59:07;6.63;;;5.97;;
81967;SDS011;71468;56.880;60.616;2023-07-20T06:01:34;8.48;;;5.82;;
81967;SDS011;71468;56.880;60.616;2023-07-20T06:04:00;9.63;;;5.88;;
81967;SDS011;71468;56.880;60.616;2023-07-20T06:06:27;7.85;;;6.10;;
81967;SDS011;71468;56.880;60.616;2023-07-20T06:08:54;7.70;;;5.80;;
81967;SDS011;71468;56.880;60.616;2023-07-20T06:11:20;6.57;;;5.97;;
81967;SDS011;71468;56.880;60.616;2023-07-20T06:13:47;7.03;;;5.88;;
81967;SDS011;71468;56.880;60.616;2023-07-20T06:16:13;7.68;;;6.10;;
81967;SDS011;71468;56.880;60.616;2023-07-20T06:18:40;6.80;;;6.10;;
81967;SDS011;71468;56.880;60.616;2023-07-20T06:21:06;9.10;;;6.82;;
81967;SDS011;71468;56.880;60.616;2023-07-20T06:23:33;7.53;;;6.93;;
81967;SDS011;71468;56.880;60.616;2023-07-20T06:26:00;6.97;;;6.28;;
81967;SDS011;71468;56.880;60.616;2023-07-20T06:28:26;6.40;;;5.68;;
81967;SDS011;71468;56.880;60.616;2023-07-20T06:30:58;8.75;;;6.95;;
81967;SDS011;71468;56.880;60.616;2023-07-20T06:33:33;10.70;;;7.88;;
81967;SDS011;71468;56.880;60.616;2023-07-20T06:36:03;7.60;;;6.90;;
81967;SDS011;71468;56.880;60.616;2023-07-20T06:38:30;9.02;;;6.47;;
81967;SDS011;71468;56.880;60.616;2023-07-20T06:40:56;7.10;;;6.07;;
81967;SDS011;71468;56.880;60.616;2023-07-20T06:43:23;6.60;;;6.00;;
81967;SDS011;71468;56.880;60.616;2023-07-20T06:45:53;6.78;;;6.07;;
81967;SDS011;71468;56.880;60.616;2023-07-20T06:48:19;8.80;;;6.40;;
81967;SDS011;71468;56.880;60.616;2023-07-20T06:50:47;8.13;;;6.20;;
81967;SDS011;71468;56.880;60.616;2023-07-20T06:53:16;6.43;;;5.82;;
81967;SDS011;71468;56.880;60.616;2023-07-20T06:55:44;8.27;;;6.72;;
81967;SDS011;71468;56.880;60.616;2023-07-20T06:58:11;8.45;;;6.10;;
81967;SDS011;71468;56.880;60.616;2023-07-20T07:00:37;6.45;;;5.82;;
81967;SDS011;71468;56.880;60.616;2023-07-20T07:03:04;6.65;;;5.90;;
81967;SDS011;71468;56.880;60.616;2023-07-20T07:05:30;6.90;;;6.30;;
81967;SDS011;71468;56.880;60.616;2023-07-20T07:07:57;8.15;;;6.22;;
81967;SDS011;71468;56.880;60.616;2023-07-20T07:10:24;7.85;;;6.15;;
81967;SDS011;71468;56.880;60.616;2023-07-20T07:12:50;7.82;;;6.88;;
81967;SDS011;71468;56.880;60.616;2023-07-20T07:15:17;6.63;;;6.00;;
81967;SDS011;71468;56.880;60.616;2023-07-20T07:17:43;7.70;;;6.25;;
81967;SDS011;71468;56.880;60.616;2023-07-20T07:20:10;7.10;;;5.80;;
81967;SDS011;71468;56.880;60.616;2023-07-20T07:22:37;6.00;;;5.35;;
81967;SDS011;71468;56.880;60.616;2023-07-20T07:25:03;6.97;;;5.05;;
81967;SDS011;71468;56.880;60.616;2023-07-20T07:27:31;7.00;;;5.47;;
81967;SDS011;71468;56.880;60.616;2023-07-20T07:29:57;10.93;;;5.65;;
81967;SDS011;71468;56.880;60.616;2023-07-20T07:32:24;6.15;;;5.57;;
81967;SDS011;71468;56.880;60.616;2023-07-20T07:34:51;6.95;;;5.00;;
81967;SDS011;71468;56.880;60.616;2023-07-20T07:37:17;5.20;;;4.70;;
81967;SDS011;71468;56.880;60.616;2023-07-20T07:39:46;4.97;;;4.50;;
81967;SDS011;71468;56.880;60.616;2023-07-20T07:42:12;4.70;;;4.30;;
81967;SDS011;71468;56.880;60.616;2023-07-20T07:44:39;5.20;;;4.80;;
81967;SDS011;71468;56.880;60.616;2023-07-20T07:47:09;4.88;;;4.55;;
81967;SDS011;71468;56.880;60.616;2023-07-20T07:49:36;6.68;;;4.38;;
81967;SDS011;71468;56.880;60.616;2023-07-20T07:52:02;6.07;;;4.43;;
81967;SDS011;71468;56.880;60.616;2023-07-20T07:54:29;5.25;;;4.35;;
81967;SDS011;71468;56.880;60.616;2023-07-20T07:56:58;5.30;;;3.92;;
81967;SDS011;71468;56.880;60.616;2023-07-20T07:59:24;4.13;;;3.83;;
81967;SDS011;71468;56.880;60.616;2023-07-20T08:01:51;4.63;;;4.00;;
81967;SDS011;71468;56.880;60.616;2023-07-20T08:04:18;3.97;;;3.58;;
81967;SDS011;71468;56.880;60.616;2023-07-20T08:06:45;4.68;;;4.10;;
81967;SDS011;71468;56.880;60.616;2023-07-20T08:09:11;4.30;;;3.95;;
81967;SDS011;71468;56.880;60.616;2023-07-20T08:11:39;5.68;;;3.80;;
81967;SDS011;71468;56.880;60.616;2023-07-20T08:14:05;5.72;;;4.00;;
81967;SDS011;71468;56.880;60.616;2023-07-20T08:16:32;4.82;;;3.97;;
81967;SDS011;71468;56.880;60.616;2023-07-20T08:18:59;4.65;;;3.60;;
81967;SDS011;71468;56.880;60.616;2023-07-20T08:21:25;4.43;;;3.92;;
81967;SDS011;71468;56.880;60.616;2023-07-20T08:23:52;4.95;;;4.05;;
81967;SDS011;71468;56.880;60.616;2023-07-20T08:26:19;5.75;;;4.28;;
81967;SDS011;71468;56.880;60.616;2023-07-20T08:28:48;4.55;;;3.95;;
81967;SDS011;71468;56.880;60.616;2023-07-20T08:31:15;5.20;;;4.30;;
81967;SDS011;71468;56.880;60.616;2023-07-20T08:33:41;4.38;;;3.95;;
81967;SDS011;71468;56.880;60.616;2023-07-20T08:36:08;5.88;;;4.32;;
81967;SDS011;71468;56.880;60.616;2023-07-20T08:38:35;5.20;;;4.30;;
81967;SDS011;71468;56.880;60.616;2023-07-20T08:41:01;6.35;;;4.20;;
81967;SDS011;71468;56.880;60.616;2023-07-20T08:43:28;4.90;;;4.40;;
81967;SDS011;71468;56.880;60.616;2023-07-20T08:45:55;4.15;;;3.83;;
81967;SDS011;71468;56.880;60.616;2023-07-20T08:48:24;5.22;;;3.88;;
81967;SDS011;71468;56.880;60.616;2023-07-20T08:50:53;4.50;;;4.10;;
81967;SDS011;71468;56.880;60.616;2023-07-20T08:53:20;4.70;;;4.20;;
81967;SDS011;71468;56.880;60.616;2023-07-20T08:55:48;4.28;;;3.92;;
81967;SDS011;71468;56.880;60.616;2023-07-20T08:58:17;4.20;;;3.90;;
81967;SDS011;71468;56.880;60.616;2023-07-20T09:00:45;4.45;;;3.72;;
81967;SDS011;71468;56.880;60.616;2023-07-20T09:03:11;3.50;;;3.30;;
81967;SDS011;71468;56.880;60.616;2023-07-20T09:05:38;4.43;;;3.80;;
81967;SDS011;71468;56.880;60.616;2023-07-20T09:08:07;4.07;;;3.78;;
81967;SDS011;71468;56.880;60.616;2023-07-20T09:10:33;3.90;;;3.40;;
81967;SDS011;71468;56.880;60.616;2023-07-20T09:13:00;3.33;;;3.10;;
81967;SDS011;71468;56.880;60.616;2023-07-20T09:15:29;4.43;;;3.40;;
81967;SDS011;71468;56.880;60.616;2023-07-20T09:18:00;4.47;;;3.47;;
81967;SDS011;71468;56.880;60.616;2023-07-20T09:20:27;3.50;;;3.20;;
81967;SDS011;71468;56.880;60.616;2023-07-20T09:22:58;4.05;;;3.75;;
81967;SDS011;71468;56.880;60.616;2023-07-20T09:25:26;3.65;;;3.35;;
81967;SDS011;71468;56.880;60.616;2023-07-20T09:27:52;4.10;;;3.70;;
81967;SDS011;71468;56.880;60.616;2023-07-20T09:30:21;3.85;;;3.55;;
81967;SDS011;71468;56.880;60.616;2023-07-20T09:32:51;4.40;;;4.00;;
81967;SDS011;71468;56.880;60.616;2023-07-20T09:35:18;4.03;;;3.53;;
81967;SDS011;71468;56.880;60.616;2023-07-20T09:37:46;3.75;;;3.45;;
81967;SDS011;71468;56.880;60.616;2023-07-20T09:40:15;4.40;;;3.53;;
81967;SDS011;71468;56.880;60.616;2023-07-20T09:42:43;4.13;;;3.50;;
81967;SDS011;71468;56.880;60.616;2023-07-20T09:45:11;4.47;;;4.07;;
81967;SDS011;71468;56.880;60.616;2023-07-20T09:47:37;4.10;;;3.70;;
81967;SDS011;71468;56.880;60.616;2023-07-20T09:50:06;4.10;;;3.80;;
81967;SDS011;71468;56.880;60.616;2023-07-20T09:52:37;4.50;;;3.75;;
81967;SDS011;71468;56.880;60.616;2023-07-20T09:55:09;3.80;;;3.50;;
81967;SDS011;71468;56.880;60.616;2023-07-20T09:57:38;3.53;;;3.33;;
81967;SDS011;71468;56.880;60.616;2023-07-20T10:00:05;4.10;;;3.80;;
81967;SDS011;71468;56.880;60.616;2023-07-20T10:02:43;3.97;;;3.65;;
81967;SDS011;71468;56.880;60.616;2023-07-20T10:05:11;4.00;;;3.70;;
81967;SDS011;71468;56.880;60.616;2023-07-20T10:07:47;5.60;;;3.40;;
81967;SDS011;71468;56.880;60.616;2023-07-20T10:10:16;4.28;;;3.88;;
81967;SDS011;71468;56.880;60.616;2023-07-20T10:12:44;4.40;;;3.75;;
81967;SDS011;71468;56.880;60.616;2023-07-20T10:15:24;5.22;;;3.90;;
81967;SDS011;71468;56.880;60.616;2023-07-20T10:17:59;8.48;;;4.10;;
81967;SDS011;71468;56.880;60.616;2023-07-20T10:20:27;4.05;;;3.75;;
81967;SDS011;71468;56.880;60.616;2023-07-20T10:22:53;3.92;;;3.55;;
81967;SDS011;71468;56.880;60.616;2023-07-20T10:25:23;18.20;;;5.55;;
81967;SDS011;71468;56.880;60.616;2023-07-20T10:27:50;20.83;;;7.07;;
81967;SDS011;71468;56.880;60.616;2023-07-20T10:30:17;14.50;;;6.15;;
81967;SDS011;71468;56.880;60.616;2023-07-20T10:32:44;11.40;;;6.88;;
81967;SDS011;71468;56.880;60.616;2023-07-20T10:35:12;10.93;;;6.97;;
81967;SDS011;71468;56.880;60.616;2023-07-20T10:40:23;9.82;;;7.85;;
81967;SDS011;71468;56.880;60.616;2023-07-20T10:42:57;7.30;;;5.78;;
81967;SDS011;71468;56.880;60.616;2023-07-20T10:46:08;7.43;;;5.60;;
81967;SDS011;71468;56.880;60.616;2023-07-20T10:50:43;6.20;;;5.60;;
81967;SDS011;71468;56.880;60.616;2023-07-20T10:53:11;6.20;;;5.32;;
81967;SDS011;71468;56.880;60.616;2023-07-20T10:55:39;6.00;;;5.40;;
81967;SDS011;71468;56.880;60.616;2023-07-20T10:58:07;7.10;;;5.57;;
81967;SDS011;71468;56.880;60.616;2023-07-20T11:00:35;9.48;;;5.20;;
81967;SDS011;71468;56.880;60.616;2023-07-20T11:03:02;5.40;;;4.90;;
81967;SDS011;71468;56.880;60.616;2023-07-20T11:05:35;5.53;;;4.47;;
81967;SDS011;71468;56.880;60.616;2023-07-20T11:08:05;6.18;;;4.88;;
81967;SDS011;71468;56.880;60.616;2023-07-20T11:10:33;7.63;;;4.65;;
81967;SDS011;71468;56.880;60.616;2023-07-20T11:18:28;5.50;;;4.88;;
81967;SDS011;71468;56.880;60.616;2023-07-20T11:20:54;6.20;;;5.07;;
81967;SDS011;71468;56.880;60.616;2023-07-20T11:23:21;8.38;;;5.00;;
81967;SDS011;71468;56.880;60.616;2023-07-20T11:25:48;7.85;;;4.45;;
81967;SDS011;71468;56.880;60.616;2023-07-20T11:28:16;7.88;;;5.82;;
81967;SDS011;71468;56.880;60.616;2023-07-20T11:30:42;7.38;;;5.20;;
81967;SDS011;71468;56.880;60.616;2023-07-20T11:33:10;6.53;;;5.03;;
81967;SDS011;71468;56.880;60.616;2023-07-20T11:35:41;7.65;;;4.97;;
81967;SDS011;71468;56.880;60.616;2023-07-20T11:38:09;6.05;;;4.57;;
81967;SDS011;71468;56.880;60.616;2023-07-20T11:40:35;5.68;;;4.38;;
81967;SDS011;71468;56.880;60.616;2023-07-20T11:43:02;6.03;;;4.25;;
81967;SDS011;71468;56.880;60.616;2023-07-20T11:45:28;5.63;;;4.43;;
81967;SDS011;71468;56.880;60.616;2023-07-20T11:47:59;7.45;;;4.47;;
81967;SDS011;71468;56.880;60.616;2023-07-20T11:50:26;5.60;;;4.63;;
81967;SDS011;71468;56.880;60.616;2023-07-20T11:52:53;14.60;;;7.13;;
81967;SDS011;71468;56.880;60.616;2023-07-20T11:55:20;6.07;;;4.32;;
81967;SDS011;71468;56.880;60.616;2023-07-20T11:58:06;4.40;;;4.00;;
81967;SDS011;71468;56.880;60.616;2023-07-20T12:00:33;6.65;;;4.72;;
81967;SDS011;71468;56.880;60.616;2023-07-20T12:03:04;31.48;;;11.07;;
81967;SDS011;71468;56.880;60.616;2023-07-20T12:05:33;74.47;;;18.45;;
81967;SDS011;71468;56.880;60.616;2023-07-20T12:08:00;280.88;;;70.13;;
81967;SDS011;71468;56.880;60.616;2023-07-20T12:10:27;84.47;;;22.17;;
81967;SDS011;71468;56.880;60.616;2023-07-20T12:13:02;9.52;;;5.35;;
81967;SDS011;71468;56.880;60.616;2023-07-20T12:15:33;5.90;;;4.30;;
81967;SDS011;71468;56.880;60.616;2023-07-20T12:18:01;4.45;;;3.83;;
81967;SDS011;71468;56.880;60.616;2023-07-20T12:20:29;9.45;;;3.95;;
81967;SDS011;71468;56.880;60.616;2023-07-20T12:22:58;5.30;;;3.90;;
81967;SDS011;71468;56.880;60.616;2023-07-20T12:25:37;4.82;;;3.80;;
81967;SDS011;71468;56.880;60.616;2023-07-20T12:28:17;4.97;;;3.88;;
81967;SDS011;71468;56.880;60.616;2023-07-20T12:30:45;8.23;;;4.40;;
81967;SDS011;71468;56.880;60.616;2023-07-20T12:33:13;9.20;;;3.90;;
81967;SDS011;71468;56.880;60.616;2023-07-20T12:35:43;7.60;;;4.10;;
81967;SDS011;71468;56.880;60.616;2023-07-20T12:38:11;7.50;;;4.50;;
81967;SDS011;71468;56.880;60.616;2023-07-20T12:40:38;4.50;;;3.83;;
81967;SDS011;71468;56.880;60.616;2023-07-20T12:43:04;3.38;;;3.10;;
81967;SDS011;71468;56.880;60.616;2023-07-20T12:45:32;4.40;;;4.00;;
81967;SDS011;71468;56.880;60.616;2023-07-20T12:47:59;4.55;;;3.30;;
81967;SDS011;71468;56.880;60.616;2023-07-20T12:50:26;5.93;;;3.30;;
81967;SDS011;71468;56.880;60.616;2023-07-20T12:52:53;3.70;;;3.20;;
81967;SDS011;71468;56.880;60.616;2023-07-20T12:55:20;4.63;;;2.85;;
81967;SDS011;71468;56.880;60.616;2023-07-20T12:57:47;3.10;;;2.80;;
81967;SDS011;71468;56.880;60.616;2023-07-20T13:00:14;5.50;;;2.85;;
81967;SDS011;71468;56.880;60.616;2023-07-20T13:02:41;3.40;;;2.70;;
81967;SDS011;71468;56.880;60.616;2023-07-20T13:05:08;5.28;;;3.22;;
81967;SDS011;71468;56.880;60.616;2023-07-20T13:07:36;5.03;;;3.42;;
81967;SDS011;71468;56.880;60.616;2023-07-20T13:10:04;11.80;;;3.90;;
81967;SDS011;71468;56.880;60.616;2023-07-20T13:12:32;2.85;;;2.50;;
81967;SDS011;71468;56.880;60.616;2023-07-20T13:15:04;4.45;;;2.70;;
81967;SDS011;71468;56.880;60.616;2023-07-20T13:17:38;2.60;;;2.40;;
81967;SDS011;71468;56.880;60.616;2023-07-20T13:20:05;4.72;;;2.20;;
81967;SDS011;71468;56.880;60.616;2023-07-20T13:22:34;4.72;;;2.20;;
81967;SDS011;71468;56.880;60.616;2023-07-20T13:25:00;8.52;;;3.00;;
81967;SDS011;71468;56.880;60.616;2023-07-20T13:27:28;6.88;;;2.83;;
81967;SDS011;71468;56.880;60.616;2023-07-20T13:29:54;7.13;;;2.45;;
81967;SDS011;71468;56.880;60.616;2023-07-20T13:32:21;5.70;;;2.70;;
81967;SDS011;71468;56.880;60.616;2023-07-20T13:34:48;4.75;;;2.20;;
81967;SDS011;71468;56.880;60.616;2023-07-20T13:37:15;3.55;;;1.85;;
81967;SDS011;71468;56.880;60.616;2023-07-20T13:39:42;4.63;;;2.20;;
81967;SDS011;71468;56.880;60.616;2023-07-20T13:42:10;6.75;;;2.80;;
81967;SDS011;71468;56.880;60.616;2023-07-20T13:44:38;7.15;;;2.10;;
81967;SDS011;71468;56.880;60.616;2023-07-20T13:47:05;3.90;;;1.50;;
81967;SDS011;71468;56.880;60.616;2023-07-20T13:49:31;4.82;;;2.15;;
81967;SDS011;71468;56.880;60.616;2023-07-20T13:51:58;6.15;;;1.95;;
81967;SDS011;71468;56.880;60.616;2023-07-20T13:54:25;8.10;;;1.88;;
81967;SDS011;71468;56.880;60.616;2023-07-20T13:56:52;7.63;;;1.60;;
81967;SDS011;71468;56.880;60.616;2023-07-20T13:59:18;3.97;;;1.90;;
81967;SDS011;71468;56.880;60.616;2023-07-20T14:01:45;3.25;;;1.30;;
81967;SDS011;71468;56.880;60.616;2023-07-20T14:04:13;2.38;;;1.00;;
81967;SDS011;71468;56.880;60.616;2023-07-20T14:06:39;2.58;;;1.40;;
81967;SDS011;71468;56.880;60.616;2023-07-20T14:09:05;3.55;;;1.10;;
81967;SDS011;71468;56.880;60.616;2023-07-20T14:11:32;1.52;;;1.10;;
81967;SDS011;71468;56.880;60.616;2023-07-20T14:13:59;2.08;;;1.17;;
81967;SDS011;71468;56.880;60.616;2023-07-20T14:16:25;2.00;;;1.10;;
81967;SDS011;71468;56.880;60.616;2023-07-20T14:18:52;5.15;;;0.93;;
81967;SDS011;71468;56.880;60.616;2023-07-20T14:21:19;3.85;;;1.13;;
81967;SDS011;71468;56.880;60.616;2023-07-20T14:23:47;6.22;;;1.00;;
81967;SDS011;71468;56.880;60.616;2023-07-20T14:26:15;5.07;;;1.30;;
81967;SDS011;71468;56.880;60.616;2023-07-20T14:28:42;7.45;;;1.33;;
81967;SDS011;71468;56.880;60.616;2023-07-20T14:31:09;3.50;;;1.10;;
81967;SDS011;71468;56.880;60.616;2023-07-20T14:33:35;2.17;;;1.13;;
81967;SDS011;71468;56.880;60.616;2023-07-20T14:36:02;3.00;;;0.63;;
81967;SDS011;71468;56.880;60.616;2023-07-20T14:38:30;2.88;;;0.90;;
81967;SDS011;71468;56.880;60.616;2023-07-20T14:40:57;2.83;;;0.90;;
81967;SDS011;71468;56.880;60.616;2023-07-20T14:43:24;6.35;;;1.10;;
81967;SDS011;71468;56.880;60.616;2023-07-20T14:45:50;4.38;;;1.05;;
81967;SDS011;71468;56.880;60.616;2023-07-20T14:48:17;2.47;;;0.90;;
81967;SDS011;71468;56.880;60.616;2023-07-20T14:50:44;4.20;;;1.10;;
81967;SDS011;71468;56.880;60.616;2023-07-20T14:53:12;1.75;;;0.70;;
81967;SDS011;71468;56.880;60.616;2023-07-20T14:55:42;4.47;;;1.33;;